Time;durP1;ratioP1;P1;durP2;ratioP2;P2;SDS_P1;SDS_P2;PMS_P1;PMS_P2;Temp;Humidity;BMP_temperature;BMP_pressure;BME280_temperature;BME280_humidity;BME280_pressure;Samples;Min_cycle;Max_cycle;Signal;HPM_P1;HPM_P2
2022/04/12 00:01:54;;;;;;;10.32;2.78;;;;;;;1.44;100.00;99365.97;5133293;28;20055;-59
2022/04/12 00:04:20;;;;;;;6.55;3.28;;;;;;;1.41;100.00;99380.09;5133324;27;20047;-59
2022/04/12 00:06:46;;;;;;;10.45;3.08;;;;;;;1.33;100.00;99395.09;5133340;27;20051;-59
2022/04/12 00:09:13;;;;;;;9.38;2.72;;;;;;;1.27;100.00;99411.69;5133245;27;20053;-59
2022/04/12 00:11:40;;;;;;;10.52;3.50;;;;;;;1.30;100.00;99427.28;5133467;28;20054;-59
2022/04/12 00:14:07;;;;;;;7.40;3.00;;;;;;;1.27;100.00;99436.00;5133484;28;20047;-59
2022/04/12 00:16:34;;;;;;;9.82;3.58;;;;;;;1.29;100.00;99442.69;5133122;27;20047;-59
2022/04/12 00:19:06;;;;;;;9.93;3.22;;;;;;;1.31;100.00;99459.41;5133261;27;20115;-59
2022/04/12 00:21:34;;;;;;;4.82;2.67;;;;;;;1.26;100.00;99462.16;5133311;27;20532;-59
2022/04/12 00:24:02;;;;;;;10.38;3.33;;;;;;;1.24;100.00;99471.69;5133102;27;20146;-59
2022/04/12 00:26:28;;;;;;;7.45;2.83;;;;;;;1.14;100.00;99478.06;5132434;27;20527;-59
2022/04/12 00:28:54;;;;;;;8.23;2.95;;;;;;;1.15;100.00;99479.66;5132999;27;20053;-59
2022/04/12 00:31:20;;;;;;;6.80;3.03;;;;;;;1.10;100.00;99485.94;5132802;28;20190;-58
2022/04/12 00:33:47;;;;;;;5.80;3.00;;;;;;;1.10;100.00;99485.13;5133314;27;20490;-59
2022/04/12 00:36:14;;;;;;;12.05;3.20;;;;;;;1.12;100.00;99494.53;5132872;27;20103;-59
2022/04/12 00:38:41;;;;;;;8.93;3.17;;;;;;;1.07;100.00;99501.94;5133206;28;20505;-59
2022/04/12 00:41:08;;;;;;;7.97;3.05;;;;;;;1.09;100.00;99510.53;5132928;28;20062;-59
2022/04/12 00:43:35;;;;;;;8.35;2.53;;;;;;;1.05;100.00;99521.13;5132763;27;20043;-59
2022/04/12 00:46:02;;;;;;;8.73;3.05;;;;;;;1.07;100.00;99528.94;5132813;28;20051;-59
2022/04/12 00:48:29;;;;;;;11.27;3.42;;;;;;;1.06;100.00;99535.41;5132594;28;20100;-59
2022/04/12 00:50:56;;;;;;;11.95;3.25;;;;;;;1.07;100.00;99537.03;5132796;27;20047;-59
2022/04/12 00:53:23;;;;;;;10.95;3.40;;;;;;;1.04;100.00;99543.81;5132495;27;20047;-59
2022/04/12 00:55:49;;;;;;;12.32;3.20;;;;;;;1.06;100.00;99544.31;5132727;27;20047;-59
2022/04/12 00:58:15;;;;;;;16.55;4.53;;;;;;;1.06;100.00;99535.41;5132393;27;20051;-59
2022/04/12 01:00:42;;;;;;;11.13;4.28;;;;;;;1.00;100.00;99545.50;5132324;27;20062;-58
2022/04/12 01:03:08;;;;;;;12.73;4.43;;;;;;;0.98;100.00;99538.78;5132409;28;20077;-59
2022/04/12 01:05:35;;;;;;;9.45;3.72;;;;;;;0.90;100.00;99541.03;5132185;27;20048;-59
2022/04/12 01:08:03;;;;;;;15.50;3.78;;;;;;;0.99;100.00;99553.88;5132286;27;20540;-59
2022/04/12 01:10:31;;;;;;;10.02;4.18;;;;;;;0.89;100.00;99552.91;5132475;27;20414;-59
2022/04/12 01:12:58;;;;;;;7.28;3.50;;;;;;;0.90;100.00;99556.41;5132264;27;20501;-58
2022/04/12 01:15:25;;;;;;;5.78;3.10;;;;;;;0.92;100.00;99555.03;5132082;28;20051;-59
2022/04/12 01:17:52;;;;;;;10.13;3.00;;;;;;;0.92;100.00;99554.25;5132239;27;20054;-59
2022/04/12 01:20:23;;;;;;;7.88;3.53;;;;;;;0.95;100.00;99561.75;5132117;28;20054;-59
2022/04/12 01:22:55;;;;;;;6.88;2.58;;;;;;;0.97;100.00;99567.69;5132510;27;20051;-58
2022/04/12 01:25:23;;;;;;;6.03;3.03;;;;;;;1.03;100.00;99565.69;5131984;28;20051;-58
2022/04/12 01:27:50;;;;;;;9.73;2.47;;;;;;;0.96;100.00;99566.06;5132521;27;20047;-59
2022/04/12 01:30:16;;;;;;;10.07;2.80;;;;;;;1.01;100.00;99574.09;5132089;28;20043;-59
2022/04/12 01:32:42;;;;;;;7.80;3.03;;;;;;;0.98;100.00;99565.78;5132027;28;20429;-59
2022/04/12 01:35:09;;;;;;;8.55;3.03;;;;;;;0.96;100.00;99567.97;5131969;27;20047;-59
2022/04/12 01:37:35;;;;;;;6.95;2.65;;;;;;;0.96;100.00;99560.66;5130821;27;20051;-59
2022/04/12 01:40:03;;;;;;;14.25;3.42;;;;;;;0.84;100.00;99561.09;5131902;27;20405;-59
2022/04/12 01:42:30;;;;;;;10.85;3.30;;;;;;;0.88;100.00;99567.53;5131583;27;20051;-59
2022/04/12 01:44:56;;;;;;;10.00;2.80;;;;;;;0.85;100.00;99561.91;5131838;28;20070;-59
2022/04/12 01:47:22;;;;;;;8.68;3.10;;;;;;;0.90;100.00;99561.81;5131723;27;20043;-59
2022/04/12 01:49:48;;;;;;;11.15;3.72;;;;;;;0.84;100.00;99555.69;5131643;28;20558;-59
2022/04/12 01:52:15;;;;;;;9.95;3.70;;;;;;;0.84;100.00;99557.59;5131368;28;20422;-59
2022/04/12 01:54:41;;;;;;;9.90;4.25;;;;;;;0.89;100.00;99555.63;5131914;27;20513;-60
2022/04/12 01:57:08;;;;;;;6.25;3.45;;;;;;;0.88;100.00;99550.53;5131445;28;20048;-59
2022/04/12 01:59:34;;;;;;;8.38;3.28;;;;;;;0.92;100.00;99543.44;5131803;27;20194;-59
2022/04/12 02:02:01;;;;;;;11.68;3.03;;;;;;;0.86;100.00;99548.09;5131024;28;20055;-59
2022/04/12 02:04:27;;;;;;;8.82;3.28;;;;;;;0.87;100.00;99540.81;5131385;27;20078;-59
2022/04/12 02:06:53;;;;;;;7.00;3.00;;;;;;;0.95;100.00;99534.75;5131465;27;20047;-59
2022/04/12 02:09:19;;;;;;;7.10;3.15;;;;;;;1.10;100.00;99529.16;5131404;28;20141;-59
2022/04/12 02:11:45;;;;;;;10.07;3.42;;;;;;;1.29;100.00;99525.63;5131231;28;20489;-59
2022/04/12 02:14:12;;;;;;;8.93;3.03;;;;;;;1.32;100.00;99531.22;5131441;28;20047;-59
2022/04/12 02:16:38;;;;;;;6.63;2.88;;;;;;;1.45;100.00;99540.47;5131520;27;20174;-59
2022/04/12 02:19:05;;;;;;;6.95;2.90;;;;;;;1.59;100.00;99540.53;5131278;27;20047;-59
2022/04/12 02:21:31;;;;;;;13.25;3.50;;;;;;;1.74;100.00;99537.56;5131646;27;20059;-59
2022/04/12 02:23:57;;;;;;;10.10;3.17;;;;;;;1.86;100.00;99548.69;5131065;28;20099;-59
2022/04/12 02:26:23;;;;;;;11.82;3.20;;;;;;;2.00;100.00;99553.31;5131302;27;20043;-59
2022/04/12 02:28:49;;;;;;;7.82;3.05;;;;;;;2.10;100.00;99564.78;5131280;28;20502;-59
2022/04/12 02:31:16;;;;;;;8.90;2.70;;;;;;;2.11;100.00;99565.56;5131270;27;20047;-59
2022/04/12 02:33:42;;;;;;;11.60;3.63;;;;;;;2.03;100.00;99575.19;5130916;28;20055;-59
2022/04/12 02:36:09;;;;;;;8.25;2.55;;;;;;;2.09;100.00;99560.44;5130871;28;20043;-58
2022/04/12 02:38:35;;;;;;;8.15;3.20;;;;;;;2.10;100.00;99558.56;5131100;28;20051;-59
2022/04/12 02:41:01;;;;;;;11.15;2.90;;;;;;;2.09;100.00;99554.25;5130962;28;20055;-59
2022/04/12 02:43:27;;;;;;;7.40;3.35;;;;;;;2.21;100.00;99540.25;5131107;28;20572;-59
2022/04/12 02:45:53;;;;;;;6.05;2.45;;;;;;;2.31;100.00;99540.84;5131312;28;20495;-59
2022/04/12 02:48:20;;;;;;;4.10;2.33;;;;;;;2.45;100.00;99540.81;5131242;27;20051;-59
2022/04/12 02:50:47;;;;;;;4.78;2.30;;;;;;;2.52;100.00;99549.34;5130968;27;20140;-59
2022/04/12 02:53:14;;;;;;;6.47;2.03;;;;;;;2.67;100.00;99548.25;5130982;28;20146;-59
2022/04/12 02:55:40;;;;;;;6.97;2.50;;;;;;;2.68;100.00;99559.88;5130794;28;20055;-59
2022/04/12 02:58:06;;;;;;;4.22;2.20;;;;;;;2.70;100.00;99560.34;5130775;27;20055;-59
2022/04/12 03:00:32;;;;;;;6.80;2.20;;;;;;;2.78;100.00;99548.81;5130410;28;20080;-60
2022/04/12 03:02:59;;;;;;;4.75;1.80;;;;;;;2.78;100.00;99559.66;5130703;28;20066;-59
2022/04/12 03:05:25;;;;;;;6.00;2.55;;;;;;;2.79;100.00;99572.06;5130610;27;20051;-59
2022/04/12 03:07:52;;;;;;;6.55;2.60;;;;;;;2.78;100.00;99565.84;5130494;28;20505;-59
2022/04/12 03:10:18;;;;;;;12.65;2.08;;;;;;;2.73;100.00;99565.97;5130747;27;20134;-59
2022/04/12 03:12:44;;;;;;;5.30;2.38;;;;;;;2.72;100.00;99577.09;5130501;27;20059;-59
2022/04/12 03:15:10;;;;;;;6.43;2.33;;;;;;;2.69;100.00;99566.88;5130606;27;20497;-59
2022/04/12 03:17:37;;;;;;;6.72;2.28;;;;;;;2.80;100.00;99565.56;5130578;28;20047;-59
2022/04/12 03:20:03;;;;;;;7.85;2.30;;;;;;;2.80;100.00;99573.69;5130656;27;20055;-59
2022/04/12 03:22:29;;;;;;;6.40;2.10;;;;;;;2.87;100.00;99579.50;5130318;27;20073;-59
2022/04/12 03:24:56;;;;;;;6.05;2.13;;;;;;;2.91;100.00;99575.06;5130531;28;20054;-59
2022/04/12 03:27:22;;;;;;;3.67;1.98;;;;;;;2.94;100.00;99577.19;5130418;27;20074;-59
2022/04/12 03:29:49;;;;;;;9.88;2.97;;;;;;;2.93;100.00;99586.41;5130550;28;20047;-59
2022/04/12 03:32:15;;;;;;;5.72;2.22;;;;;;;2.94;100.00;99589.91;5130457;28;20043;-59
2022/04/12 03:34:42;;;;;;;5.63;1.95;;;;;;;2.89;100.00;99604.34;5130171;28;20051;-60
2022/04/12 03:37:08;;;;;;;4.15;1.90;;;;;;;2.85;100.00;99597.16;5130547;28;20081;-59
2022/04/12 03:39:34;;;;;;;3.72;1.80;;;;;;;2.91;100.00;99595.94;5130283;28;20047;-59
2022/04/12 03:42:01;;;;;;;10.05;2.40;;;;;;;3.03;100.00;99586.19;5130106;27;20510;-59
2022/04/12 03:44:27;;;;;;;2.85;2.00;;;;;;;3.00;100.00;99588.69;5129983;28;20047;-59
2022/04/12 03:46:53;;;;;;;8.75;2.50;;;;;;;2.91;100.00;99596.75;5130307;27;20043;-59
2022/04/12 03:49:20;;;;;;;3.42;2.17;;;;;;;2.93;100.00;99596.41;5130039;28;20054;-59
2022/04/12 03:51:46;;;;;;;8.25;2.30;;;;;;;2.94;100.00;99604.25;5130071;28;20487;-59
2022/04/12 03:54:12;;;;;;;3.83;2.38;;;;;;;3.00;100.00;99600.34;5129916;27;20051;-60
2022/04/12 03:56:38;;;;;;;5.28;2.08;;;;;;;3.11;100.00;99595.50;5130145;28;20053;-59
2022/04/12 03:59:05;;;;;;;5.07;2.08;;;;;;;3.11;100.00;99592.78;5130172;28;20051;-59
2022/04/12 04:01:31;;;;;;;5.03;2.38;;;;;;;3.16;100.00;99600.78;5132066;27;20051;-59
2022/04/12 04:03:58;;;;;;;7.68;2.65;;;;;;;3.14;100.00;99602.22;5133656;28;20054;-59
2022/04/12 04:06:25;;;;;;;4.90;2.30;;;;;;;3.16;100.00;99608.91;5133478;28;20051;-59
2022/04/12 04:08:51;;;;;;;6.57;2.55;;;;;;;3.10;100.00;99612.03;5133895;27;20480;-60
2022/04/12 04:11:17;;;;;;;8.70;2.65;;;;;;;3.20;100.00;99604.50;5133538;28;20047;-59
2022/04/12 04:13:44;;;;;;;4.40;2.15;;;;;;;3.30;100.00;99601.56;5133661;27;20043;-59
2022/04/12 04:16:11;;;;;;;6.05;2.15;;;;;;;3.34;100.00;99609.91;5133449;28;20134;-59
2022/04/12 04:18:38;;;;;;;4.53;2.30;;;;;;;3.42;100.00;99609.16;5133510;27;20055;-59
2022/04/12 04:21:04;;;;;;;6.60;2.70;;;;;;;3.49;100.00;99620.38;5133211;27;20520;-59
2022/04/12 04:23:30;;;;;;;4.70;2.25;;;;;;;3.57;100.00;99621.56;5133348;27;20061;-59
2022/04/12 04:25:56;;;;;;;4.13;2.50;;;;;;;3.59;100.00;99627.47;5133340;28;20058;-59
2022/04/12 04:28:23;;;;;;;8.73;2.20;;;;;;;3.57;100.00;99627.00;5133457;27;20047;-59
2022/04/12 04:30:49;;;;;;;3.97;1.90;;;;;;;3.45;100.00;99627.50;5133014;27;20111;-59
2022/04/12 04:33:17;;;;;;;4.93;1.92;;;;;;;3.57;100.00;99629.69;5132516;28;20084;-59
2022/04/12 04:35:45;;;;;;;7.85;2.53;;;;;;;3.59;100.00;99629.38;5132968;28;20055;-59
2022/04/12 04:38:11;;;;;;;8.52;2.78;;;;;;;3.57;100.00;99628.91;5132671;27;20055;-60
2022/04/12 04:40:37;;;;;;;5.78;2.13;;;;;;;3.58;100.00;99623.16;5133364;27;20047;-59
2022/04/12 04:43:03;;;;;;;4.82;2.25;;;;;;;3.52;100.00;99629.81;5132327;27;20055;-59
2022/04/12 04:45:30;;;;;;;7.35;2.40;;;;;;;3.50;100.00;99624.69;5133058;27;20054;-59
2022/04/12 04:47:58;;;;;;;3.90;2.13;;;;;;;3.57;100.00;99631.63;5132460;28;20187;-59
2022/04/12 04:50:27;;;;;;;5.05;2.40;;;;;;;3.62;100.00;99634.19;5132553;27;20070;-59
2022/04/12 04:52:53;;;;;;;4.07;2.10;;;;;;;3.75;100.00;99630.63;5132307;27;20062;-59
2022/04/12 04:55:20;;;;;;;5.13;2.67;;;;;;;3.82;100.00;99636.41;5132401;27;20051;-59
2022/04/12 04:57:47;;;;;;;4.93;2.35;;;;;;;3.88;100.00;99629.75;5132793;28;20047;-60
2022/04/12 05:00:15;;;;;;;7.68;2.33;;;;;;;4.03;100.00;99630.47;5132341;28;20051;-59
2022/04/12 05:02:43;;;;;;;4.28;2.22;;;;;;;4.04;100.00;99622.06;5131886;28;20058;-59
2022/04/12 05:05:09;;;;;;;5.57;2.05;;;;;;;4.05;100.00;99623.63;5132117;27;20478;-59
2022/04/12 05:07:36;;;;;;;6.55;2.05;;;;;;;4.04;100.00;99611.19;5132500;27;20047;-59
2022/04/12 05:10:03;;;;;;;6.03;2.50;;;;;;;4.07;100.00;99615.22;5132397;28;20059;-59
2022/04/12 05:12:29;;;;;;;3.20;1.98;;;;;;;4.23;100.00;99614.50;5138611;27;20062;-59
2022/04/12 05:14:55;;;;;;;8.52;2.30;;;;;;;4.26;100.00;99599.47;5150278;27;20047;-59
2022/04/12 05:17:25;;;;;;;7.80;2.28;;;;;;;4.35;100.00;99602.25;5137379;27;20437;-60
2022/04/12 05:19:51;;;;;;;3.75;2.08;;;;;;;4.49;100.00;99582.00;5152033;27;20532;-59
2022/04/12 05:22:18;;;;;;;4.30;2.40;;;;;;;4.28;100.00;99578.28;5152668;27;20537;-59
2022/04/12 05:24:45;;;;;;;2.17;1.67;;;;;;;4.31;100.00;99585.00;5152626;27;20046;-60
2022/04/12 05:27:11;;;;;;;5.75;2.20;;;;;;;4.35;100.00;99592.19;5151916;27;20050;-60
2022/04/12 05:29:37;;;;;;;4.70;2.42;;;;;;;4.23;100.00;99576.50;5131799;28;20051;-59
2022/04/12 05:32:04;;;;;;;7.13;2.28;;;;;;;4.18;100.00;99592.91;5131815;28;20063;-59
2022/04/12 05:34:30;;;;;;;2.63;1.98;;;;;;;4.22;100.00;99596.59;5142900;27;20043;-58
2022/04/12 05:36:57;;;;;;;5.60;2.40;;;;;;;4.22;100.00;99593.09;5141700;27;20100;-60
2022/04/12 05:39:23;;;;;;;4.60;2.38;;;;;;;4.30;100.00;99603.19;5131691;28;20502;-60
2022/04/12 05:41:50;;;;;;;9.07;2.78;;;;;;;4.39;100.00;99595.06;5131653;28;20054;-59
2022/04/12 05:44:16;;;;;;;3.88;1.92;;;;;;;4.42;100.00;99587.09;5133423;27;20043;-60
2022/04/12 05:46:42;;;;;;;5.85;2.20;;;;;;;4.42;100.00;99578.97;5140660;27;20054;-60
2022/04/12 05:49:08;;;;;;;7.10;2.08;;;;;;;4.72;100.00;99598.22;5136492;27;20070;-59
2022/04/12 05:51:34;;;;;;;6.18;2.15;;;;;;;5.33;100.00;99580.13;5131130;27;20051;-59
2022/04/12 05:54:00;;;;;;;3.63;1.83;;;;;;;5.43;100.00;99489.25;5131199;27;20051;-66
2022/04/12 05:56:27;;;;;;;6.25;2.00;;;;;;;5.40;100.00;99425.47;5131725;28;20051;-74
2022/04/12 05:58:54;;;;;;;4.93;2.22;;;;;;;5.48;100.00;99393.13;5137656;27;20498;-78
2022/04/12 06:01:20;;;;;;;4.35;1.83;;;;;;;5.48;100.00;99357.78;5135563;27;20057;-75
2022/04/12 06:03:46;;;;;;;3.33;2.22;;;;;;;5.70;100.00;99334.94;5131780;28;20084;-73
2022/04/12 06:06:14;;;;;;;7.40;1.92;;;;;;;5.73;100.00;99296.22;5141960;27;20051;-75
2022/04/12 06:08:40;;;;;;;3.58;1.67;;;;;;;5.94;100.00;99258.97;5137055;27;20223;-67
2022/04/12 06:11:07;;;;;;;5.05;1.95;;;;;;;5.89;100.00;99200.06;5131406;27;20051;-67
2022/04/12 06:13:33;;;;;;;2.95;1.95;;;;;;;5.93;100.00;99178.50;5144944;27;20057;-68
2022/04/12 06:16:00;;;;;;;5.25;2.30;;;;;;;5.98;100.00;99166.59;5140792;27;20047;-68
2022/04/12 06:18:26;;;;;;;3.35;1.95;;;;;;;6.06;100.00;99141.22;5142585;27;20046;-67
2022/04/12 06:20:52;;;;;;;6.43;2.30;;;;;;;6.03;100.00;99123.66;5143028;27;20042;-67
2022/04/12 06:23:18;;;;;;;3.97;2.00;;;;;;;5.88;100.00;99116.84;5137014;27;20051;-65
2022/04/12 06:25:45;;;;;;;2.28;1.90;;;;;;;5.92;100.00;99167.88;5150556;27;20043;-68
2022/04/12 06:28:11;;;;;;;6.95;2.10;;;;;;;5.96;100.00;99172.34;5151609;27;20504;-68
2022/04/12 06:30:37;;;;;;;8.35;1.90;;;;;;;6.09;100.00;99173.19;5151811;27;20054;-66
2022/04/12 06:33:04;;;;;;;8.88;1.65;;;;;;;6.14;100.00;99143.06;5152019;27;20885;-67
2022/04/12 06:35:30;;;;;;;5.13;3.17;;;;;;;6.27;100.00;99135.75;5152207;27;20233;-66
2022/04/12 06:37:57;;;;;;;4.43;1.80;;;;;;;6.39;100.00;99097.63;5151858;27;20050;-66
2022/04/12 06:40:24;;;;;;;4.95;1.92;;;;;;;6.34;100.00;99025.13;5151396;27;20050;-66
2022/04/12 06:42:52;;;;;;;3.75;1.98;;;;;;;6.34;100.00;99008.78;5146124;27;20055;-65
2022/04/12 06:45:58;;;;;;;;;;;;;;;;;;;;;
2022/04/12 06:48:29;;;;;;;13.07;2.72;;;;;;;6.41;100.00;98945.59;5094252;28;20062;-66
2022/04/12 06:50:55;;;;;;;6.72;1.52;;;;;;;6.41;100.00;98955.69;5131852;27;20105;-71
2022/04/12 06:53:23;;;;;;;5.32;1.90;;;;;;;6.46;100.00;98917.31;5130356;28;20469;-73
2022/04/12 06:55:49;;;;;;;7.47;1.60;;;;;;;6.39;100.00;98890.69;5149368;27;20161;-69
2022/04/12 06:58:16;;;;;;;5.50;1.70;;;;;;;6.50;100.00;98913.59;5151404;27;20091;-68
2022/04/12 07:00:43;;;;;;;1.70;1.60;;;;;;;6.40;100.00;98867.78;5151495;27;20042;-69
2022/04/12 07:03:09;;;;;;;4.53;1.70;;;;;;;6.20;100.00;98890.47;5151342;27;20050;-68
2022/04/12 07:05:36;;;;;;;7.40;1.95;;;;;;;6.03;100.00;98976.69;5141833;27;20047;-69
2022/04/12 07:08:02;;;;;;;5.55;2.03;;;;;;;6.26;100.00;99028.75;5130514;28;20053;-68
2022/04/12 07:10:28;;;;;;;7.00;1.90;;;;;;;6.40;100.00;99022.16;5130670;28;20076;-68
2022/04/12 07:12:54;;;;;;;5.10;2.00;;;;;;;6.57;100.00;98978.38;5130140;27;20047;-70
2022/04/12 07:15:21;;;;;;;6.70;2.17;;;;;;;6.43;100.00;98962.41;5130380;27;20092;-68
2022/04/12 07:17:47;;;;;;;2.08;1.75;;;;;;;6.57;100.00;98953.88;5128152;27;20096;-70
2022/04/12 07:20:14;;;;;;;10.65;2.70;;;;;;;6.59;100.00;98946.13;5150573;27;20062;-70
2022/04/12 07:22:40;;;;;;;4.22;2.05;;;;;;;6.73;100.00;98908.44;5151193;27;20051;-66
2022/04/12 07:25:08;;;;;;;2.38;1.30;;;;;;;6.56;100.00;98862.38;5151133;27;20047;-67
2022/04/12 07:27:36;;;;;;;5.13;2.05;;;;;;;6.35;100.00;98896.03;5151260;27;20051;-68
2022/04/12 07:30:03;;;;;;;6.25;1.92;;;;;;;6.55;100.00;98973.25;5151233;27;20095;-69
2022/04/12 07:32:31;;;;;;;6.93;2.20;;;;;;;6.70;100.00;98925.47;5150849;27;20502;-65
2022/04/12 07:34:57;;;;;;;6.18;1.90;;;;;;;6.93;100.00;98886.78;5151398;27;20055;-66
2022/04/12 07:37:24;;;;;;;3.75;1.67;;;;;;;7.07;100.00;98832.66;5150552;27;20051;-66
2022/04/12 07:39:50;;;;;;;7.20;2.22;;;;;;;6.96;100.00;98785.25;5142826;27;20549;-69
2022/04/12 07:42:17;;;;;;;4.53;2.13;;;;;;;7.03;100.00;98788.97;5154332;27;20095;-71
2022/04/12 07:44:43;;;;;;;4.43;2.75;;;;;;;7.08;100.00;98782.44;5154552;27;20051;-74
2022/04/12 07:47:10;;;;;;;6.40;1.98;;;;;;;7.14;100.00;98772.09;5154615;27;20050;-71
2022/04/12 07:49:36;;;;;;;2.75;2.30;;;;;;;7.04;100.00;98757.84;5154683;27;20054;-69
2022/04/12 07:52:02;;;;;;;3.50;2.13;;;;;;;6.95;100.00;98779.00;5154432;27;20043;-69
2022/04/12 07:54:28;;;;;;;3.90;2.10;;;;;;;6.89;100.00;98790.50;5154602;27;20053;-66
2022/04/12 07:56:55;;;;;;;8.75;2.65;;;;;;;6.60;100.00;98847.75;5154648;27;20050;-66
2022/04/12 07:59:22;;;;;;;3.95;1.90;;;;;;;6.79;100.00;98931.53;5154266;27;20501;-72
2022/04/12 08:01:48;;;;;;;4.95;2.63;;;;;;;7.10;100.00;98921.09;5154212;27;20088;-71
2022/04/12 08:04:14;;;;;;;5.53;1.60;;;;;;;7.48;100.00;98816.94;5154281;27;20412;-69
2022/04/12 08:06:40;;;;;;;4.90;2.05;;;;;;;7.39;100.00;98716.19;5154212;27;20050;-68
2022/04/12 08:09:06;;;;;;;1.75;1.52;;;;;;;7.44;100.00;98728.78;5154232;27;20047;-67
2022/04/12 08:11:33;;;;;;;9.48;2.05;;;;;;;7.64;100.00;98688.72;5154062;27;20428;-65
2022/04/12 08:14:00;;;;;;;3.72;1.67;;;;;;;7.36;100.00;98673.28;5154371;27;20512;-68
2022/04/12 08:16:26;;;;;;;6.57;1.80;;;;;;;7.38;100.00;98717.34;5153926;27;20427;-67
2022/04/12 08:18:53;;;;;;;6.78;1.80;;;;;;;7.54;100.00;98737.22;5153994;27;20054;-67
2022/04/12 08:21:30;;;;;;;4.40;2.25;;;;;;;7.58;100.00;98707.28;5153563;27;20142;-67
2022/04/12 08:23:57;;;;;;;5.40;2.00;;;;;;;7.72;100.00;98676.78;5153923;27;20528;-65
2022/04/12 08:26:24;;;;;;;9.45;2.20;;;;;;;7.75;100.00;98662.44;5153676;27;20051;-67
2022/04/12 08:28:50;;;;;;;11.15;2.25;;;;;;;7.76;100.00;98629.34;5154225;27;20703;-68
2022/04/12 08:31:17;;;;;;;7.97;1.73;;;;;;;7.91;100.00;98626.91;5153909;27;20047;-63
2022/04/12 08:33:43;;;;;;;3.05;1.90;;;;;;;8.04;100.00;98597.50;5153732;27;20058;-64
2022/04/12 08:36:10;;;;;;;6.47;1.85;;;;;;;8.13;100.00;98582.47;5149632;27;20046;-68
2022/04/12 08:38:36;;;;;;;2.65;1.45;;;;;;;8.16;100.00;98556.38;5133021;28;20065;-64
2022/04/12 08:41:03;;;;;;;3.97;1.80;;;;;;;8.03;100.00;98547.59;5132775;27;20066;-70
2022/04/12 08:43:31;;;;;;;6.30;1.90;;;;;;;8.01;100.00;98539.75;5135596;27;20058;-64
2022/04/12 08:45:58;;;;;;;6.25;1.67;;;;;;;8.27;100.00;98546.44;5153249;27;20054;-67
2022/04/12 08:48:25;;;;;;;3.85;1.75;;;;;;;8.57;100.00;98513.78;5153311;27;20055;-65
2022/04/12 08:50:52;;;;;;;2.53;1.75;;;;;;;8.98;100.00;98461.25;5153853;27;20082;-67
2022/04/12 08:53:19;;;;;;;3.53;1.73;;;;;;;10.35;100.00;98421.16;5153595;27;20050;-65
2022/04/12 08:55:45;;;;;;;3.80;1.85;;;;;;;10.84;100.00;98367.78;5153307;27;20053;-65
2022/04/12 08:58:11;;;;;;;4.43;1.60;;;;;;;10.55;100.00;98364.13;5151985;27;20416;-65
2022/04/12 09:00:38;;;;;;;3.20;2.00;;;;;;;10.59;100.00;98368.44;5153063;27;20429;-65
2022/04/12 09:03:04;;;;;;;2.30;1.73;;;;;;;10.83;100.00;98371.72;5152637;27;20047;-67
2022/04/12 09:05:32;;;;;;;3.60;2.10;;;;;;;11.15;100.00;98377.28;5153352;27;20070;-67
2022/04/12 09:07:59;;;;;;;3.78;1.42;;;;;;;11.07;100.00;98412.16;5150974;27;20142;-67
2022/04/12 09:10:33;;;;;;;5.85;1.80;;;;;;;11.20;100.00;98398.09;5153139;27;20047;-67
2022/04/12 09:13:09;;;;;;;2.75;1.42;;;;;;;12.02;100.00;98415.47;5153254;27;20046;-65
2022/04/12 09:15:41;;;;;;;4.22;1.63;;;;;;;12.46;100.00;98458.28;5153097;27;20046;-66
2022/04/12 09:18:09;;;;;;;6.40;2.10;;;;;;;13.01;100.00;98465.22;5145014;27;20055;-67
2022/04/12 09:20:36;;;;;;;5.60;1.80;;;;;;;12.63;100.00;98500.66;5132172;28;20426;-66
2022/04/12 09:23:02;;;;;;;4.55;1.75;;;;;;;12.27;100.00;98486.16;5132519;27;20054;-70
2022/04/12 09:25:28;;;;;;;7.82;1.80;;;;;;;11.60;100.00;98476.63;5131918;27;20047;-67
2022/04/12 09:27:55;;;;;;;5.68;1.90;;;;;;;11.38;100.00;98431.84;5132139;27;20467;-66
2022/04/12 09:30:22;;;;;;;4.63;1.58;;;;;;;11.90;100.00;98445.31;5131956;27;20420;-66
2022/04/12 09:32:49;;;;;;;2.63;1.40;;;;;;;12.39;100.00;98449.22;5137932;27;20043;-66
2022/04/12 09:35:16;;;;;;;2.10;1.67;;;;;;;12.23;100.00;98485.38;5152059;27;20043;-66
2022/04/12 09:37:44;;;;;;;2.58;1.92;;;;;;;11.70;100.00;98466.84;5151698;27;20456;-66
2022/04/12 09:40:12;;;;;;;5.32;1.90;;;;;;;12.37;100.00;98468.09;5149477;27;20099;-66
2022/04/12 09:42:44;;;;;;;4.10;1.52;;;;;;;12.42;100.00;98500.66;5152225;27;20504;-66
2022/04/12 09:45:12;;;;;;;8.27;1.75;;;;;;;12.91;100.00;98521.06;5152263;27;20042;-66
2022/04/12 09:47:39;;;;;;;3.47;1.33;;;;;;;13.06;100.00;98557.56;5151351;27;20055;-66
2022/04/12 09:50:07;;;;;;;3.65;1.70;;;;;;;13.42;100.00;98572.84;5152099;27;20047;-67
2022/04/12 09:52:33;;;;;;;2.83;1.55;;;;;;;13.46;100.00;98616.88;5152153;27;20050;-66
2022/04/12 09:55:00;;;;;;;3.10;1.58;;;;;;;13.16;100.00;98593.34;5152001;27;20099;-63
2022/04/12 09:57:26;;;;;;;5.95;1.45;;;;;;;13.05;100.00;98592.56;5151670;27;20046;-63
2022/04/12 09:59:55;;;;;;;4.53;2.00;;;;;;;13.40;100.00;98580.72;5151576;27;20061;-66
2022/04/12 10:02:22;;;;;;;6.35;1.77;;;;;;;13.89;100.00;98595.50;5151779;27;20063;-66
2022/04/12 10:04:51;;;;;;;3.22;1.45;;;;;;;14.09;100.00;98626.13;5152043;27;20051;-64
2022/04/12 10:07:19;;;;;;;2.90;1.70;;;;;;;14.28;100.00;98646.09;5145961;27;20051;-64
2022/04/12 10:09:47;;;;;;;2.60;1.35;;;;;;;13.83;100.00;98654.97;5130876;27;20043;-64
2022/04/12 10:12:15;;;;;;;6.28;1.90;;;;;;;12.91;100.00;98631.09;5132480;27;20047;-64
2022/04/12 10:14:42;;;;;;;5.00;1.90;;;;;;;12.67;100.00;98574.91;5130406;28;20062;-64
2022/04/12 10:17:09;;;;;;;1.83;1.38;;;;;;;12.73;100.00;98570.59;5130977;28;20057;-63
2022/04/12 10:19:36;;;;;;;6.80;2.03;;;;;;;12.51;100.00;98558.81;5131116;27;20080;-65
2022/04/12 10:22:03;;;;;;;2.28;1.55;;;;;;;12.52;100.00;98563.09;5130805;27;20170;-66
2022/04/12 10:24:31;;;;;;;3.30;1.45;;;;;;;12.46;100.00;98576.47;5129102;28;20052;-66
2022/04/12 10:26:58;;;;;;;3.15;1.65;;;;;;;12.66;100.00;98589.81;5130944;28;20050;-67
2022/04/12 10:29:25;;;;;;;2.65;1.55;;;;;;;13.10;100.00;98624.41;5131111;28;20043;-69
2022/04/12 10:31:55;;;;;;;3.70;1.40;;;;;;;13.28;100.00;98638.94;5141241;27;20509;-66
2022/04/12 10:34:22;;;;;;;2.83;1.30;;;;;;;13.65;100.00;98654.22;5151691;27;20057;-66
2022/04/12 10:37:00;;;;;;;3.00;1.10;;;;;;;13.81;100.00;98686.84;5151585;27;20143;-65
2022/04/12 10:39:33;;;;;;;2.38;0.80;;;;;;;13.98;100.00;98697.00;5151553;27;20090;-65
2022/04/12 10:42:03;;;;;;;2.92;1.30;;;;;;;14.09;100.00;98685.94;5151525;27;20054;-65
2022/04/12 10:44:37;;;;;;;1.85;1.27;;;;;;;13.76;100.00;98678.97;5149441;27;20070;-66
2022/04/12 10:47:03;;;;;;;;;;;;;;;13.22;100.00;98659.75;5142471;27;20409;-65
2022/04/12 10:49:35;;;;;;;3.50;1.58;;;;;;;12.68;100.00;98640.50;5148858;27;20347;-62
2022/04/12 10:52:01;;;;;;;3.13;1.20;;;;;;;12.58;100.00;98640.50;5151312;27;20047;-64
2022/04/12 10:54:29;;;;;;;7.43;0.98;;;;;;;12.35;100.00;98640.84;5151237;27;20501;-63
2022/04/12 10:57:21;;;;;;;6.38;1.60;;;;;;;12.22;100.00;98588.22;5151123;27;20078;-67
2022/04/12 10:59:51;;;;;;;2.45;1.25;;;;;;;12.29;100.00;98566.22;5151156;27;20046;-69
2022/04/12 11:02:17;;;;;;;3.10;1.25;;;;;;;12.30;100.00;98564.28;5150538;27;20054;-65
2022/04/12 11:04:44;;;;;;;3.03;1.60;;;;;;;12.04;100.00;98606.63;5151185;27;20042;-67
2022/04/12 11:07:10;;;;;;;4.05;1.67;;;;;;;11.54;100.00;98585.22;5143690;27;20051;-65
2022/04/12 11:09:36;;;;;;;5.45;1.38;;;;;;;11.58;100.00;98572.28;5149770;27;20058;-64
2022/04/12 11:12:03;;;;;;;4.43;1.13;;;;;;;11.27;100.00;98568.22;5154958;27;20061;-72
2022/04/12 11:14:32;;;;;;;3.33;1.27;;;;;;;11.26;100.00;98529.03;5154958;27;20098;-72
2022/04/12 11:17:01;;;;;;;4.10;1.50;;;;;;;11.31;100.00;98525.91;5154608;27;20521;-65
2022/04/12 11:19:28;;;;;;;4.47;1.45;;;;;;;11.47;100.00;98519.31;5154201;27;20065;-69
2022/04/12 11:22:03;;;;;;;3.95;1.05;;;;;;;11.30;100.00;98529.03;5151300;27;20094;-69
2022/04/12 11:24:29;;;;;;;1.70;1.38;;;;;;;11.31;100.00;98514.94;5134242;27;20111;-66
2022/04/12 11:27:04;;;;;;;3.00;1.38;;;;;;;11.37;100.00;98523.59;5133969;27;20409;-67
2022/04/12 11:29:30;;;;;;;6.38;1.20;;;;;;;11.83;100.00;98536.69;5133813;28;20047;-75
2022/04/12 11:31:57;;;;;;;1.88;1.25;;;;;;;11.75;100.00;98576.28;5133588;28;20436;-68